Terminal Aerodrome Forecast
Issued by NWS

Home | Current Version | Previous Version | Text Only | Print | Product List | Glossary On
Versions: 1 2 3 4 5 6 7 8 9 10 11 12 13 14 15 16 17 18 19 20 21 22 23 24 25 26 27 28 29 30 31 32 33 34
000
FTUS43 KDDC 051742
TAFHYS
TAF
KHYS 051742Z 0518/0618 13014G22KT P6SM VCSH BKN050
     FM060200 15013G22KT 5SM -SHRA BR OVC010
     FM060600 15015KT 5SM -SHRA OVC010
     FM061400 16017G25KT P6SM OVC006
     FM061700 17014G21KT P6SM BKN030=

USA.gov is the U.S. government's official web portal to all federal, state and local government web resources and services.